createdAt,value
2022-08-29T00:00:02.798Z,69
2022-08-29T00:20:03.630Z,69
2022-08-29T00:40:03.655Z,70
2022-08-29T01:00:03.064Z,70
2022-08-29T01:20:03.216Z,71
2022-08-29T01:40:03.279Z,71
2022-08-29T02:00:03.976Z,71
2022-08-29T02:20:02.869Z,71
2022-08-29T02:40:03.850Z,72
2022-08-29T03:00:02.371Z,72
2022-08-29T03:20:02.760Z,73
2022-08-29T03:40:03.350Z,74
2022-08-29T04:00:03.926Z,74
2022-08-29T04:20:02.650Z,74
2022-08-29T04:40:03.301Z,75
2022-08-29T05:00:02.827Z,75
2022-08-29T05:20:03.010Z,75
2022-08-29T05:40:04.174Z,76
2022-08-29T06:00:02.466Z,76
2022-08-29T06:20:03.062Z,77
2022-08-29T06:40:07.733Z,77
2022-08-29T07:00:22.653Z,77
2022-08-29T07:20:02.446Z,77
2022-08-29T07:40:03.172Z,77
2022-08-29T08:00:02.545Z,77
2022-08-29T08:20:02.490Z,76
2022-08-29T08:40:02.945Z,74
2022-08-29T09:00:02.378Z,73
2022-08-29T09:20:03.033Z,72
2022-08-29T09:40:02.544Z,69
2022-08-29T10:00:02.918Z,70
2022-08-29T10:20:03.099Z,70
2022-08-29T10:40:02.692Z,70
2022-08-29T11:00:03.164Z,69
2022-08-29T11:20:02.734Z,70
2022-08-29T11:40:03.972Z,69
2022-08-29T12:00:03.095Z,67
2022-08-29T12:20:03.214Z,67
2022-08-29T12:40:03.164Z,66
2022-08-29T13:00:04.188Z,66
2022-08-29T13:20:04.088Z,66
2022-08-29T13:40:04.035Z,66
2022-08-29T14:00:02.819Z,66
2022-08-29T14:20:02.928Z,65
2022-08-29T14:40:04.057Z,64
2022-08-29T15:00:03.461Z,63
2022-08-29T15:20:37.078Z,62
2022-08-29T15:40:03.741Z,61
2022-08-29T16:00:03.692Z,61
2022-08-29T16:20:02.971Z,60
2022-08-29T16:40:03.875Z,60
2022-08-29T17:00:03.686Z,61
2022-08-29T17:20:02.521Z,62
2022-08-29T17:40:03.498Z,62
2022-08-29T18:00:03.335Z,64
2022-08-29T18:20:03.094Z,66
2022-08-29T18:40:02.741Z,67
2022-08-29T19:00:03.502Z,68
2022-08-29T19:20:10.656Z,69
2022-08-29T19:40:03.188Z,70
2022-08-29T20:00:02.662Z,71
2022-08-29T20:20:03.416Z,71
2022-08-29T20:40:06.635Z,72
2022-08-29T21:00:03.543Z,72
2022-08-29T21:20:02.923Z,72
2022-08-29T21:40:03.329Z,72
2022-08-29T22:00:02.809Z,73
2022-08-29T22:20:02.273Z,73
2022-08-29T22:40:02.628Z,73
2022-08-29T23:00:03.741Z,74
2022-08-29T23:20:04.950Z,74
2022-08-29T23:40:03.206Z,74
